Time;durP1;ratioP1;P1;durP2;ratioP2;P2;SDS_P1;SDS_P2;PMS_P1;PMS_P2;Temp;Humidity;BMP_temperature;BMP_pressure;BME280_temperature;BME280_humidity;BME280_pressure;Samples;Min_cycle;Max_cycle;Signal;HPM_P1;HPM_P2
2021/01/07 00:00:10;;;;;;;18.03;8.57;;;2.50;99.90;;;;;;5092244;28;20095;-68
2021/01/07 00:02:36;;;;;;;20.47;9.93;;;2.60;99.90;;;;;;5092079;28;20507;-68
2021/01/07 00:05:07;;;;;;;18.37;8.67;;;2.50;99.90;;;;;;5092628;28;20330;-68
2021/01/07 00:07:35;;;;;;;16.17;8.53;;;2.60;99.90;;;;;;5092678;28;20048;-68
2021/01/07 00:10:03;;;;;;;17.37;8.80;;;2.60;99.90;;;;;;5092518;28;20048;-68
2021/01/07 00:12:30;;;;;;;17.93;9.33;;;2.50;99.90;;;;;;5092358;28;20048;-68
2021/01/07 00:14:56;;;;;;;16.83;8.00;;;2.60;99.90;;;;;;5092302;28;20109;-68
2021/01/07 00:17:23;;;;;;;19.73;9.00;;;2.50;99.90;;;;;;5092710;28;20052;-68
2021/01/07 00:19:49;;;;;;;18.03;9.13;;;2.40;99.90;;;;;;5092212;28;20052;-67
2021/01/07 00:22:17;;;;;;;20.53;9.43;;;2.50;99.90;;;;;;5092116;28;20047;-67
2021/01/07 00:24:44;;;;;;;20.40;9.07;;;2.40;99.90;;;;;;5092576;28;20425;-68
2021/01/07 00:27:10;;;;;;;22.47;10.73;;;2.40;99.90;;;;;;5092059;28;20075;-68
2021/01/07 00:29:37;;;;;;;20.53;9.53;;;2.40;99.90;;;;;;5092304;28;20415;-68
2021/01/07 00:32:04;;;;;;;21.80;10.30;;;2.40;99.90;;;;;;5091616;28;20048;-68
2021/01/07 00:34:31;;;;;;;22.37;10.23;;;2.50;99.90;;;;;;5092222;28;20066;-68
2021/01/07 00:36:58;;;;;;;20.70;10.80;;;2.50;99.90;;;;;;5091908;28;20047;-68
2021/01/07 00:39:26;;;;;;;23.90;10.00;;;2.50;99.90;;;;;;5092349;28;20048;-68
2021/01/07 00:41:56;;;;;;;21.97;10.37;;;2.50;99.90;;;;;;5091247;28;20056;-68
2021/01/07 00:44:23;;;;;;;21.60;10.13;;;2.50;99.90;;;;;;5092216;28;20059;-68
2021/01/07 00:46:51;;;;;;;20.57;10.30;;;2.50;99.90;;;;;;5091681;28;20126;-68
2021/01/07 00:49:17;;;;;;;19.70;10.30;;;2.50;99.90;;;;;;5092197;28;20050;-68
2021/01/07 00:51:44;;;;;;;21.40;9.63;;;2.50;99.90;;;;;;5091248;28;20040;-68
2021/01/07 00:54:11;;;;;;;25.07;9.90;;;2.50;99.90;;;;;;5091920;28;20048;-67
2021/01/07 00:56:39;;;;;;;20.43;9.97;;;2.70;99.90;;;;;;5091285;28;20048;-67
2021/01/07 00:59:06;;;;;;;22.00;10.53;;;2.50;99.90;;;;;;5091955;28;20052;-67
2021/01/07 01:01:33;;;;;;;19.27;8.67;;;2.60;99.90;;;;;;5090997;28;20052;-67
2021/01/07 01:04:00;;;;;;;19.37;9.10;;;2.50;99.90;;;;;;5092019;28;20048;-67
2021/01/07 01:06:31;;;;;;;17.10;8.17;;;2.50;99.90;;;;;;5091002;28;20067;-67
2021/01/07 01:08:58;;;;;;;16.63;8.17;;;2.40;99.90;;;;;;5091555;28;20047;-67
2021/01/07 01:11:24;;;;;;;19.73;8.20;;;2.40;99.90;;;;;;5090941;28;20059;-67
2021/01/07 01:13:55;;;;;;;16.00;7.77;;;2.50;99.90;;;;;;5091001;28;20062;-67
2021/01/07 01:16:27;;;;;;;13.97;7.00;;;2.50;99.90;;;;;;5091483;28;20051;-67
2021/01/07 01:18:53;;;;;;;14.30;6.93;;;2.50;99.90;;;;;;5091069;28;20059;-67
2021/01/07 01:21:20;;;;;;;13.43;6.43;;;2.40;99.90;;;;;;5090846;28;20097;-67
2021/01/07 01:23:47;;;;;;;15.67;6.77;;;2.30;99.90;;;;;;5090655;28;20048;-67
2021/01/07 01:26:16;;;;;;;18.03;7.47;;;2.20;99.90;;;;;;5090686;28;20125;-67
2021/01/07 01:28:43;;;;;;;14.80;6.77;;;2.20;99.90;;;;;;5090146;28;20059;-67
2021/01/07 01:31:12;;;;;;;14.90;6.60;;;2.20;99.90;;;;;;5090648;28;20048;-68
2021/01/07 01:33:39;;;;;;;15.30;7.03;;;2.30;99.90;;;;;;5090739;28;20055;-67
2021/01/07 01:36:06;;;;;;;17.60;7.43;;;2.30;99.90;;;;;;5090951;28;20454;-67
2021/01/07 01:38:33;;;;;;;16.57;7.73;;;2.40;99.90;;;;;;5090428;28;20511;-67
2021/01/07 01:41:01;;;;;;;18.97;7.27;;;2.30;99.90;;;;;;5090737;28;20059;-67
2021/01/07 01:43:28;;;;;;;14.67;6.77;;;2.40;99.90;;;;;;5090580;28;20060;-67
2021/01/07 01:45:55;;;;;;;13.93;6.77;;;2.40;99.90;;;;;;5090960;28;20048;-67
2021/01/07 01:48:23;;;;;;;14.73;6.53;;;2.30;99.90;;;;;;5090482;28;20455;-67
2021/01/07 01:50:49;;;;;;;14.67;6.90;;;2.40;99.90;;;;;;5090418;28;20044;-67
2021/01/07 01:53:16;;;;;;;13.67;6.77;;;2.30;99.90;;;;;;5090230;28;20047;-67
2021/01/07 01:55:47;;;;;;;13.40;6.50;;;2.40;99.90;;;;;;5090955;28;20048;-67
2021/01/07 01:58:15;;;;;;;16.60;7.20;;;2.30;99.90;;;;;;5090297;28;20063;-67
2021/01/07 02:00:42;;;;;;;12.63;6.47;;;2.40;99.90;;;;;;5090396;28;20051;-67
2021/01/07 02:03:09;;;;;;;15.10;6.60;;;2.30;99.90;;;;;;5090536;28;20052;-67
2021/01/07 02:05:37;;;;;;;15.20;6.93;;;2.20;99.90;;;;;;5090548;28;20060;-67
2021/01/07 02:08:05;;;;;;;15.33;7.37;;;2.20;99.90;;;;;;5090514;28;20060;-67
2021/01/07 02:10:33;;;;;;;13.93;6.83;;;2.30;99.90;;;;;;5089897;28;20048;-67
2021/01/07 02:13:01;;;;;;;14.60;6.90;;;2.40;99.90;;;;;;5090698;28;20052;-67
2021/01/07 02:15:28;;;;;;;15.40;6.67;;;2.20;99.90;;;;;;5090341;28;20102;-67
2021/01/07 02:17:56;;;;;;;15.87;6.80;;;2.10;99.90;;;;;;5090292;28;20060;-67
2021/01/07 02:20:25;;;;;;;14.07;6.63;;;2.30;99.90;;;;;;5089828;28;20052;-67
2021/01/07 02:22:52;;;;;;;15.43;6.90;;;2.30;99.90;;;;;;5090728;28;20351;-67
2021/01/07 02:25:19;;;;;;;13.80;6.17;;;2.30;99.90;;;;;;5092855;28;20044;-67
2021/01/07 02:27:46;;;;;;;14.60;6.37;;;2.30;99.90;;;;;;5094586;28;20052;-67
2021/01/07 02:30:14;;;;;;;15.20;6.77;;;2.20;99.90;;;;;;5093899;28;20048;-67
2021/01/07 02:32:40;;;;;;;13.43;6.40;;;2.20;99.90;;;;;;5094450;28;20101;-66
2021/01/07 02:35:09;;;;;;;13.67;6.33;;;2.30;99.90;;;;;;5094380;28;20063;-67
2021/01/07 02:37:37;;;;;;;16.07;6.57;;;2.20;99.90;;;;;;5094503;28;20048;-67
2021/01/07 02:40:05;;;;;;;16.80;7.63;;;2.00;99.90;;;;;;5094059;28;20056;-67
2021/01/07 02:42:32;;;;;;;13.73;6.87;;;2.00;99.90;;;;;;5095058;28;20055;-67
2021/01/07 02:44:58;;;;;;;14.70;6.87;;;2.20;99.90;;;;;;5093996;28;20083;-67
2021/01/07 02:47:25;;;;;;;15.37;7.17;;;2.20;99.90;;;;;;5094545;28;20059;-67
2021/01/07 02:49:52;;;;;;;13.43;6.47;;;2.10;99.90;;;;;;5093973;28;20104;-67
2021/01/07 02:52:18;;;;;;;15.63;7.47;;;2.30;99.90;;;;;;5094112;28;20047;-67
2021/01/07 02:54:46;;;;;;;14.37;6.43;;;2.10;99.90;;;;;;5094410;28;20052;-67
2021/01/07 02:57:13;;;;;;;16.07;7.23;;;2.10;99.90;;;;;;5094246;28;20391;-67
2021/01/07 02:59:39;;;;;;;16.03;6.70;;;2.10;99.90;;;;;;5094268;28;20052;-67
2021/01/07 03:02:06;;;;;;;14.87;6.33;;;2.10;99.90;;;;;;5093719;28;20100;-67
2021/01/07 03:04:32;;;;;;;13.57;6.97;;;2.10;99.90;;;;;;5094333;28;20050;-67
2021/01/07 03:06:59;;;;;;;11.97;5.97;;;2.10;99.90;;;;;;5094002;28;20044;-67
2021/01/07 03:09:26;;;;;;;12.60;6.33;;;2.10;99.90;;;;;;5095243;28;20048;-67
2021/01/07 03:11:53;;;;;;;13.77;7.10;;;2.10;99.90;;;;;;5094242;28;20055;-67
2021/01/07 03:14:20;;;;;;;13.53;6.53;;;2.00;99.90;;;;;;5094684;28;20412;-67
2021/01/07 03:16:47;;;;;;;16.17;6.43;;;2.10;99.90;;;;;;5092487;28;20056;-67
2021/01/07 03:19:13;;;;;;;13.30;6.73;;;2.20;99.90;;;;;;5093908;28;20499;-67
2021/01/07 03:21:42;;;;;;;13.23;6.17;;;2.20;99.90;;;;;;5093726;28;20056;-67
2021/01/07 03:24:09;;;;;;;12.37;6.60;;;2.10;99.90;;;;;;5094600;28;20044;-67
2021/01/07 03:26:36;;;;;;;15.37;6.73;;;2.10;99.90;;;;;;5093802;28;20051;-67
2021/01/07 03:29:04;;;;;;;14.67;7.37;;;2.10;99.90;;;;;;5094917;28;20052;-67
2021/01/07 03:31:31;;;;;;;14.73;6.83;;;2.10;99.90;;;;;;5093994;28;20093;-67
2021/01/07 03:33:58;;;;;;;15.23;6.90;;;2.10;99.90;;;;;;5094817;28;20055;-67
2021/01/07 03:36:24;;;;;;;14.93;6.87;;;2.10;99.90;;;;;;5093831;28;20048;-67
2021/01/07 03:38:51;;;;;;;14.23;6.77;;;1.90;99.90;;;;;;5094410;28;20048;-67
2021/01/07 03:41:20;;;;;;;15.07;6.67;;;2.00;99.90;;;;;;5092800;28;20055;-66
2021/01/07 03:43:47;;;;;;;15.70;6.47;;;2.00;99.90;;;;;;5093221;28;20394;-67
2021/01/07 03:46:15;;;;;;;14.70;6.80;;;2.00;99.90;;;;;;5093084;28;20056;-67
2021/01/07 03:48:41;;;;;;;17.47;7.93;;;2.00;99.90;;;;;;5093018;28;20052;-67
2021/01/07 03:51:08;;;;;;;14.77;6.43;;;2.00;99.90;;;;;;5092814;28;20044;-67
2021/01/07 03:53:34;;;;;;;16.27;7.10;;;1.90;99.90;;;;;;5092616;28;20048;-67
2021/01/07 03:56:01;;;;;;;17.17;7.77;;;1.90;99.90;;;;;;5093060;28;20139;-67
2021/01/07 03:58:28;;;;;;;16.33;7.40;;;2.00;99.90;;;;;;5093128;28;20113;-67
2021/01/07 04:00:54;;;;;;;15.13;7.20;;;1.90;99.90;;;;;;5092804;28;20055;-66
2021/01/07 04:03:22;;;;;;;16.10;8.07;;;2.00;99.90;;;;;;5092567;28;20055;-67
2021/01/07 04:05:48;;;;;;;17.17;7.27;;;2.00;99.90;;;;;;5092914;28;20139;-67
2021/01/07 04:08:15;;;;;;;17.63;7.70;;;1.90;99.90;;;;;;5092098;28;20412;-67
2021/01/07 04:10:42;;;;;;;16.13;7.47;;;2.10;99.90;;;;;;5092598;28;20056;-67
2021/01/07 04:13:08;;;;;;;16.63;7.30;;;2.10;99.90;;;;;;5092421;28;20074;-67
2021/01/07 04:15:35;;;;;;;16.97;7.67;;;2.10;99.90;;;;;;5092748;28;20048;-67
2021/01/07 04:18:02;;;;;;;16.10;7.43;;;2.00;99.90;;;;;;5092246;28;20048;-67
2021/01/07 04:20:29;;;;;;;20.47;8.97;;;2.00;99.90;;;;;;5092615;28;20097;-67
2021/01/07 04:22:56;;;;;;;16.47;7.93;;;2.10;99.90;;;;;;5092256;28;20048;-67
2021/01/07 04:25:24;;;;;;;16.27;7.53;;;2.00;99.90;;;;;;5093078;28;20052;-67
2021/01/07 04:27:50;;;;;;;16.53;7.93;;;2.00;99.90;;;;;;5092437;28;20412;-67
2021/01/07 04:30:18;;;;;;;19.90;8.53;;;2.20;99.90;;;;;;5092364;28;20060;-67
2021/01/07 04:32:45;;;;;;;17.10;7.63;;;2.10;99.90;;;;;;5092460;28;20047;-67
2021/01/07 04:35:12;;;;;;;15.40;6.80;;;2.10;99.90;;;;;;5092138;28;20527;-67
2021/01/07 04:37:39;;;;;;;18.00;7.50;;;2.10;99.90;;;;;;5092156;28;20559;-67
2021/01/07 04:40:07;;;;;;;16.17;7.50;;;2.00;99.90;;;;;;5091941;28;20044;-66
2021/01/07 04:42:33;;;;;;;18.47;7.83;;;1.80;99.90;;;;;;5092179;28;20060;-67
2021/01/07 04:45:01;;;;;;;17.60;7.13;;;1.90;99.90;;;;;;5091964;28;20048;-66
2021/01/07 04:47:28;;;;;;;15.07;6.73;;;2.00;99.90;;;;;;5091817;28;20052;-66
2021/01/07 04:49:55;;;;;;;18.17;7.53;;;2.00;99.90;;;;;;5091558;28;20048;-67
2021/01/07 04:52:22;;;;;;;18.67;8.03;;;2.00;99.90;;;;;;5097566;28;20066;-67
2021/01/07 04:54:52;;;;;;;17.57;8.63;;;1.90;99.90;;;;;;5095496;28;20052;-67
2021/01/07 04:57:19;;;;;;;19.20;9.13;;;1.90;99.90;;;;;;5092289;28;20689;-67
2021/01/07 04:59:46;;;;;;;17.83;8.43;;;2.10;99.90;;;;;;5091628;28;20044;-67
2021/01/07 05:02:14;;;;;;;18.37;8.20;;;2.00;99.90;;;;;;5091758;28;20052;-67
2021/01/07 05:04:48;;;;;;;17.07;8.33;;;2.10;99.90;;;;;;5091431;28;20492;-67
2021/01/07 05:07:17;;;;;;;18.80;8.73;;;2.20;99.90;;;;;;5091626;28;20492;-67
2021/01/07 05:09:44;;;;;;;18.97;8.93;;;2.10;99.90;;;;;;5091346;28;20144;-66
2021/01/07 05:12:13;;;;;;;19.73;8.83;;;2.10;99.90;;;;;;5091267;28;20510;-67
2021/01/07 05:14:44;;;;;;;20.23;8.87;;;2.00;99.90;;;;;;5091357;28;20048;-67
2021/01/07 05:17:13;;;;;;;19.93;9.20;;;2.00;99.90;;;;;;5091678;28;20048;-67
2021/01/07 05:19:39;;;;;;;17.23;8.10;;;2.00;99.90;;;;;;5091266;28;20055;-67
2021/01/07 05:22:07;;;;;;;19.47;9.60;;;2.00;99.90;;;;;;5091316;28;20055;-67
2021/01/07 05:24:34;;;;;;;20.97;10.40;;;2.00;99.90;;;;;;5091476;28;20063;-66
2021/01/07 05:27:06;;;;;;;22.37;10.00;;;2.00;99.90;;;;;;5091196;28;20105;-67
2021/01/07 05:29:34;;;;;;;24.10;8.90;;;2.00;99.90;;;;;;5091213;28;20052;-67
2021/01/07 05:32:00;;;;;;;19.63;8.73;;;2.10;99.90;;;;;;5090907;28;20052;-67
2021/01/07 05:34:27;;;;;;;24.10;10.00;;;2.00;99.90;;;;;;5091196;28;20048;-67
2021/01/07 05:36:58;;;;;;;21.90;9.93;;;2.00;99.90;;;;;;5090785;28;20105;-67
2021/01/07 05:39:31;;;;;;;18.77;8.83;;;2.00;99.90;;;;;;5091455;28;20059;-67
2021/01/07 05:42:01;;;;;;;20.30;10.20;;;1.90;99.90;;;;;;5090275;28;20431;-66
2021/01/07 05:44:32;;;;;;;23.30;9.83;;;2.00;99.90;;;;;;5091335;28;20500;-67
2021/01/07 05:46:59;;;;;;;23.07;9.83;;;2.10;99.90;;;;;;5090727;28;20171;-66
2021/01/07 05:49:35;;;;;;;19.17;9.53;;;2.00;99.90;;;;;;5091114;28;20664;-67
2021/01/07 05:52:06;;;;;;;24.00;10.70;;;2.00;99.90;;;;;;5090385;28;20048;-67
2021/01/07 05:54:33;;;;;;;26.03;10.00;;;1.90;99.90;;;;;;5090994;28;20049;-67
2021/01/07 05:57:03;;;;;;;24.47;9.90;;;1.80;99.90;;;;;;5090832;28;20055;-67
2021/01/07 05:59:32;;;;;;;20.63;9.67;;;1.80;99.90;;;;;;5090172;28;20098;-67
2021/01/07 06:02:03;;;;;;;23.20;10.50;;;1.80;99.90;;;;;;5090316;28;20155;-67
2021/01/07 06:04:32;;;;;;;21.97;10.73;;;1.80;99.90;;;;;;5091275;28;20058;-67
2021/01/07 06:06:59;;;;;;;25.90;11.57;;;1.70;99.90;;;;;;5090600;28;20052;-67
2021/01/07 06:09:28;;;;;;;30.87;11.37;;;1.90;99.90;;;;;;5091191;28;20048;-68
2021/01/07 06:11:57;;;;;;;21.13;9.77;;;2.00;99.90;;;;;;5090091;28;20048;-67
2021/01/07 06:14:25;;;;;;;23.60;10.30;;;1.90;99.90;;;;;;5091053;28;20415;-67
2021/01/07 06:16:53;;;;;;;20.77;10.07;;;1.80;99.90;;;;;;5090483;28;20047;-66
2021/01/07 06:19:39;;;;;;;21.50;9.10;;;1.80;99.90;;;;;;5091240;28;20076;-67
2021/01/07 06:22:09;;;;;;;24.07;10.90;;;1.80;99.90;;;;;;5089364;28;20052;-67
2021/01/07 06:24:37;;;;;;;26.00;11.27;;;1.80;99.90;;;;;;5090783;28;20055;-67
2021/01/07 06:27:29;;;;;;;23.87;10.87;;;1.90;99.90;;;;;;5090303;28;20153;-67
2021/01/07 06:30:34;;;;;;;24.77;10.33;;;1.80;99.90;;;;;;5090726;28;20113;-66
2021/01/07 06:33:03;;;;;;;22.17;9.83;;;1.80;99.90;;;;;;5090450;28;20397;-67
2021/01/07 06:35:43;;;;;;;19.00;8.50;;;1.70;99.90;;;;;;5090824;28;20044;-67
2021/01/07 06:38:25;;;;;;;20.67;9.17;;;1.70;99.90;;;;;;5090080;28;20052;-66
2021/01/07 06:40:51;;;;;;;22.67;10.17;;;1.70;99.90;;;;;;5090338;28;20075;-66
2021/01/07 06:43:19;;;;;;;22.57;9.67;;;1.70;99.90;;;;;;5090104;28;20087;-67
2021/01/07 06:45:51;;;;;;;20.23;9.33;;;1.70;99.90;;;;;;5090753;28;20424;-67
2021/01/07 06:48:25;;;;;;;21.20;9.87;;;1.80;99.90;;;;;;5090005;28;20044;-67
2021/01/07 06:50:55;;;;;;;20.70;8.20;;;1.90;99.90;;;;;;5089873;28;20048;-66
2021/01/07 06:53:22;;;;;;;19.27;8.67;;;1.90;99.90;;;;;;5090184;28;20048;-67
2021/01/07 06:56:17;;;;;;;19.23;8.63;;;1.90;99.90;;;;;;5090593;28;20067;-67
2021/01/07 06:58:46;;;;;;;18.27;8.73;;;1.80;99.90;;;;;;5090545;28;20048;-66
2021/01/07 07:01:16;;;;;;;22.20;9.37;;;1.80;99.90;;;;;;5091049;28;20497;-67
2021/01/07 07:03:50;;;;;;;21.50;9.23;;;1.80;99.90;;;;;;5090944;28;20052;-67
2021/01/07 07:06:25;;;;;;;19.13;9.23;;;1.90;99.90;;;;;;5090678;28;20488;-67
2021/01/07 07:08:52;;;;;;;18.00;7.47;;;1.90;99.90;;;;;;5090021;28;20591;-65
2021/01/07 07:11:33;;;;;;;20.47;8.10;;;1.90;99.90;;;;;;5092265;28;20052;-67
2021/01/07 07:14:04;;;;;;;18.60;8.33;;;1.90;99.90;;;;;;5093498;28;20044;-67
2021/01/07 07:16:35;;;;;;;17.87;7.80;;;1.80;99.90;;;;;;5094136;28;20048;-67
2021/01/07 07:19:02;;;;;;;18.30;8.70;;;1.80;99.90;;;;;;5093496;28;20047;-67
2021/01/07 07:21:30;;;;;;;19.93;7.97;;;1.70;99.90;;;;;;5093821;28;20409;-67
2021/01/07 07:24:09;;;;;;;22.47;10.03;;;1.90;99.90;;;;;;5094064;28;20056;-67
2021/01/07 07:26:37;;;;;;;18.83;8.23;;;1.90;99.90;;;;;;5094948;28;20048;-67
2021/01/07 07:29:07;;;;;;;20.77;9.20;;;1.90;99.90;;;;;;5103964;28;20040;-67
2021/01/07 07:31:44;;;;;;;16.50;8.53;;;1.90;99.90;;;;;;5095338;28;20438;-67
2021/01/07 07:34:11;;;;;;;19.30;8.90;;;2.00;99.90;;;;;;5093456;28;20043;-69
2021/01/07 07:36:40;;;;;;;19.43;8.43;;;2.10;99.90;;;;;;5093759;28;20055;-69
2021/01/07 07:39:07;;;;;;;19.60;8.67;;;2.10;99.90;;;;;;5093555;28;20040;-73
2021/01/07 07:41:44;;;;;;;18.70;8.53;;;1.90;99.90;;;;;;5093595;28;20052;-69
2021/01/07 07:44:12;;;;;;;23.83;9.83;;;2.00;99.90;;;;;;5093720;28;20052;-70
2021/01/07 07:46:39;;;;;;;17.33;8.27;;;1.90;99.90;;;;;;5092955;28;20501;-69
2021/01/07 07:49:10;;;;;;;18.33;8.83;;;1.90;99.90;;;;;;5093122;28;20052;-70
2021/01/07 07:51:40;;;;;;;17.20;8.57;;;1.90;99.90;;;;;;5094065;28;20052;-69
2021/01/07 07:54:09;;;;;;;17.50;7.63;;;2.00;99.90;;;;;;5101303;28;20533;-70
2021/01/07 07:56:36;;;;;;;19.10;8.10;;;2.10;99.90;;;;;;5093339;28;20089;-70
2021/01/07 07:59:04;;;;;;;16.33;8.27;;;2.10;99.90;;;;;;5093568;28;20044;-69
2021/01/07 08:01:41;;;;;;;18.80;8.37;;;2.00;99.90;;;;;;5092647;28;20052;-70
2021/01/07 08:04:12;;;;;;;17.67;8.50;;;2.00;99.90;;;;;;5096940;28;20048;-67
2021/01/07 08:06:38;;;;;;;18.63;8.47;;;2.00;99.90;;;;;;5092965;28;20048;-67
2021/01/07 08:09:07;;;;;;;14.67;7.80;;;2.10;99.90;;;;;;5093057;28;20416;-67
2021/01/07 08:11:41;;;;;;;20.57;8.63;;;2.10;99.90;;;;;;5092130;28;20052;-67
2021/01/07 08:14:12;;;;;;;20.53;8.73;;;2.00;99.90;;;;;;5092598;28;20109;-67
2021/01/07 08:16:39;;;;;;;21.73;8.63;;;2.10;99.90;;;;;;5092430;28;20519;-67
2021/01/07 08:19:16;;;;;;;20.27;9.10;;;2.10;99.90;;;;;;5092755;28;20101;-67
2021/01/07 08:21:45;;;;;;;19.43;9.37;;;2.10;99.90;;;;;;5091449;28;20048;-67
2021/01/07 08:24:13;;;;;;;21.43;8.40;;;2.00;99.90;;;;;;5094372;28;20044;-69
2021/01/07 08:26:43;;;;;;;20.43;9.43;;;2.10;99.90;;;;;;5091926;28;20044;-67
2021/01/07 08:29:10;;;;;;;22.43;9.73;;;2.10;99.90;;;;;;5092491;28;20423;-67
2021/01/07 08:31:44;;;;;;;22.50;10.60;;;2.10;99.90;;;;;;5092193;28;20576;-68
2021/01/07 08:34:11;;;;;;;23.93;10.03;;;2.00;99.90;;;;;;5092834;28;20048;-67
2021/01/07 08:36:38;;;;;;;23.23;10.70;;;2.20;99.90;;;;;;5091929;28;20142;-67
2021/01/07 08:39:05;;;;;;;26.07;11.50;;;2.20;99.90;;;;;;5092178;28;20554;-68
2021/01/07 08:41:32;;;;;;;26.03;11.17;;;2.30;99.90;;;;;;5091782;28;20075;-67
2021/01/07 08:44:03;;;;;;;26.50;12.20;;;2.10;99.90;;;;;;5094333;28;20052;-69
2021/01/07 08:46:38;;;;;;;28.97;13.03;;;2.10;99.90;;;;;;5093839;28;20060;-71
2021/01/07 08:49:07;;;;;;;26.30;12.63;;;2.10;99.90;;;;;;5092728;28;20500;-69
2021/01/07 08:51:41;;;;;;;28.40;12.47;;;2.20;99.90;;;;;;5092068;28;20094;-70
2021/01/07 08:54:12;;;;;;;30.80;13.27;;;2.30;99.90;;;;;;5092557;28;20106;-69
2021/01/07 08:56:41;;;;;;;27.20;12.53;;;2.20;99.90;;;;;;5092342;28;20089;-72
2021/01/07 08:59:32;;;;;;;29.00;13.67;;;2.30;99.90;;;;;;5092109;28;20040;-73
2021/01/07 09:02:01;;;;;;;31.73;14.03;;;2.20;99.90;;;;;;5091123;28;20056;-70
2021/01/07 09:04:32;;;;;;;31.50;14.40;;;2.20;99.90;;;;;;5092009;28;20412;-69
2021/01/07 09:07:01;;;;;;;30.93;13.70;;;2.30;99.90;;;;;;5091696;28;20048;-74
2021/01/07 09:09:37;;;;;;;32.17;13.87;;;2.30;99.90;;;;;;5092103;28;20442;-67
2021/01/07 09:12:13;;;;;;;32.22;13.45;;;2.30;99.90;;;;;;5091777;28;20489;-67
2021/01/07 09:14:51;;;;;;;28.77;13.40;;;2.30;99.90;;;;;;5091334;28;20056;-67
2021/01/07 09:17:19;;;;;;;33.23;14.00;;;2.40;99.90;;;;;;5091719;28;20055;-67
2021/01/07 09:19:47;;;;;;;31.17;13.77;;;2.50;99.90;;;;;;5091829;28;20087;-67
2021/01/07 09:22:21;;;;;;;31.10;13.63;;;2.40;99.90;;;;;;5091215;28;20059;-67
2021/01/07 09:24:49;;;;;;;30.30;14.10;;;2.30;99.90;;;;;;5090632;28;20047;-67
2021/01/07 09:27:19;;;;;;;30.13;13.60;;;2.40;99.90;;;;;;5091554;28;20052;-67
2021/01/07 09:29:46;;;;;;;33.67;14.07;;;2.30;99.90;;;;;;5091040;28;20052;-67
2021/01/07 09:32:13;;;;;;;31.90;13.17;;;2.50;99.90;;;;;;5091037;28;20565;-67
2021/01/07 09:34:41;;;;;;;30.63;13.87;;;2.50;99.90;;;;;;5091115;28;20044;-67
2021/01/07 09:37:14;;;;;;;27.87;13.63;;;2.40;99.90;;;;;;5091316;28;20059;-70
2021/01/07 09:39:41;;;;;;;33.53;14.47;;;2.60;99.90;;;;;;5091215;28;20496;-69
2021/01/07 09:42:08;;;;;;;31.77;14.73;;;2.50;99.90;;;;;;5091303;28;20484;-69
2021/01/07 09:44:36;;;;;;;35.33;15.07;;;2.50;99.90;;;;;;5091580;28;20066;-69
2021/01/07 09:47:04;;;;;;;36.77;16.07;;;2.60;99.90;;;;;;5090855;28;20055;-69
2021/01/07 09:49:31;;;;;;;30.83;13.63;;;2.60;99.90;;;;;;5090916;28;20119;-69
2021/01/07 09:51:58;;;;;;;37.93;15.23;;;2.60;99.90;;;;;;5090412;28;20054;-70
2021/01/07 09:54:25;;;;;;;30.60;13.53;;;2.40;99.90;;;;;;5090857;28;20044;-70
2021/01/07 09:56:52;;;;;;;40.00;15.90;;;2.40;99.90;;;;;;5091257;28;20058;-69
2021/01/07 09:59:20;;;;;;;31.00;14.03;;;2.60;99.90;;;;;;5090779;28;20108;-69
2021/01/07 10:01:48;;;;;;;35.57;15.30;;;2.50;99.90;;;;;;5090810;28;20048;-69
2021/01/07 10:04:15;;;;;;;32.70;13.13;;;2.60;99.90;;;;;;5090692;28;20056;-69
2021/01/07 10:06:42;;;;;;;29.53;12.27;;;2.50;99.90;;;;;;5090644;28;20093;-69
2021/01/07 10:09:09;;;;;;;29.23;12.73;;;2.50;99.90;;;;;;5091434;28;20131;-70
2021/01/07 10:11:36;;;;;;;26.83;12.43;;;2.50;99.90;;;;;;5092139;28;20056;-73
2021/01/07 10:14:03;;;;;;;31.17;13.00;;;2.50;99.90;;;;;;5092294;28;20050;-70
2021/01/07 10:16:30;;;;;;;27.83;11.77;;;2.50;99.90;;;;;;5092272;28;20052;-69
2021/01/07 10:18:57;;;;;;;29.90;12.47;;;2.40;99.90;;;;;;5092488;28;20044;-70
2021/01/07 10:21:25;;;;;;;32.30;13.43;;;2.50;99.90;;;;;;5092061;28;20135;-70
2021/01/07 10:23:52;;;;;;;33.43;14.40;;;2.60;99.90;;;;;;5092532;28;20044;-74
2021/01/07 10:26:20;;;;;;;32.07;13.83;;;2.70;99.90;;;;;;5091217;28;20352;-69
2021/01/07 10:28:48;;;;;;;33.33;14.37;;;2.70;99.90;;;;;;5092834;28;20055;-70
2021/01/07 10:31:16;;;;;;;28.30;12.83;;;2.80;99.90;;;;;;5091988;28;20048;-70
2021/01/07 10:33:43;;;;;;;32.40;13.40;;;3.00;99.90;;;;;;5092553;28;20066;-70
2021/01/07 10:36:14;;;;;;;28.20;12.57;;;2.90;99.90;;;;;;5092076;28;20135;-72
2021/01/07 10:38:41;;;;;;;25.87;11.03;;;2.90;99.90;;;;;;5095458;28;20078;-70
2021/01/07 10:41:09;;;;;;;29.70;11.73;;;2.80;99.90;;;;;;5093105;28;20052;-73
2021/01/07 10:43:36;;;;;;;28.23;11.33;;;2.80;99.90;;;;;;5102161;28;20043;-69
2021/01/07 10:46:04;;;;;;;28.03;11.53;;;3.00;99.90;;;;;;5115624;28;20043;-73
2021/01/07 10:48:31;;;;;;;25.67;11.73;;;2.90;99.90;;;;;;5117886;28;20052;-71
2021/01/07 10:51:02;;;;;;;23.87;11.63;;;2.90;99.90;;;;;;5116828;28;20403;-69
2021/01/07 10:53:57;;;;;;;26.43;12.03;;;3.00;99.90;;;;;;5114635;28;20043;-72
2021/01/07 10:56:26;;;;;;;26.27;11.90;;;3.00;99.90;;;;;;5106808;28;20047;-69
2021/01/07 10:59:09;;;;;;;26.20;11.07;;;3.10;99.90;;;;;;5117094;28;20416;-72
2021/01/07 11:01:50;;;;;;;24.23;11.00;;;3.00;99.90;;;;;;5114155;28;20526;-69
2021/01/07 11:05:01;;;;;;;26.60;11.97;;;3.00;99.90;;;;;;5107247;28;20056;-69
2021/01/07 11:07:33;;;;;;;27.57;11.37;;;3.10;99.90;;;;;;5110597;28;20048;-69
2021/01/07 11:10:05;;;;;;;25.83;11.37;;;3.10;99.90;;;;;;5099774;28;20046;-69
2021/01/07 11:12:39;;;;;;;29.63;11.63;;;3.20;99.90;;;;;;5113664;28;20040;-69
2021/01/07 11:15:11;;;;;;;25.33;11.53;;;3.10;99.90;;;;;;5099590;28;20048;-69
2021/01/07 11:17:41;;;;;;;26.63;11.10;;;2.90;99.90;;;;;;5110116;28;20060;-68
2021/01/07 11:20:09;;;;;;;28.63;11.30;;;2.80;99.90;;;;;;5100396;28;20043;-69
2021/01/07 11:22:38;;;;;;;28.80;10.90;;;2.80;99.90;;;;;;5104130;28;20055;-70
2021/01/07 11:25:07;;;;;;;26.00;11.03;;;2.80;99.90;;;;;;5091415;28;20116;-69
2021/01/07 11:27:35;;;;;;;27.50;11.13;;;2.80;99.90;;;;;;5104640;28;20131;-69
2021/01/07 11:30:05;;;;;;;28.50;12.00;;;2.90;99.90;;;;;;5109598;28;20564;-69
2021/01/07 11:32:36;;;;;;;29.10;11.77;;;2.90;99.90;;;;;;5111071;28;20052;-71
2021/01/07 11:35:06;;;;;;;30.70;13.10;;;2.90;99.90;;;;;;5111362;28;20044;-68
2021/01/07 11:37:46;;;;;;;30.73;12.67;;;3.00;99.90;;;;;;5109841;28;20102;-69
2021/01/07 11:40:18;;;;;;;31.97;14.10;;;2.90;99.90;;;;;;5107649;28;20047;-68
2021/01/07 11:43:20;;;;;;;28.03;12.60;;;3.10;99.90;;;;;;5108719;28;20070;-68
2021/01/07 11:45:55;;;;;;;27.10;12.50;;;3.00;99.90;;;;;;5093584;28;20047;-69
2021/01/07 11:48:25;;;;;;;27.33;11.97;;;3.10;99.90;;;;;;5112564;28;20075;-69
2021/01/07 11:50:59;;;;;;;29.17;12.30;;;3.00;99.90;;;;;;5110844;28;20040;-69
2021/01/07 11:53:28;;;;;;;32.23;13.97;;;3.10;99.90;;;;;;5107913;28;20044;-69
2021/01/07 11:55:57;;;;;;;29.50;13.00;;;3.10;99.90;;;;;;5112761;28;20054;-70
2021/01/07 11:58:28;;;;;;;29.17;12.03;;;3.00;99.90;;;;;;5112275;28;20569;-70
2021/01/07 12:01:00;;;;;;;37.03;14.90;;;3.10;99.90;;;;;;5112668;28;20138;-69
2021/01/07 12:03:31;;;;;;;30.23;14.03;;;3.00;99.90;;;;;;5110863;28;20079;-70
2021/01/07 12:06:02;;;;;;;36.37;13.83;;;3.00;99.90;;;;;;5111416;28;20051;-72
2021/01/07 12:08:52;;;;;;;28.83;12.37;;;3.20;99.90;;;;;;5112068;28;20047;-72
2021/01/07 12:11:23;;;;;;;24.20;10.73;;;3.20;99.90;;;;;;5115898;28;20043;-73
2021/01/07 12:13:59;;;;;;;28.07;12.70;;;3.10;99.90;;;;;;5129135;28;20039;-73
2021/01/07 12:16:30;;;;;;;28.00;12.17;;;3.20;99.90;;;;;;5132017;28;20042;-71
2021/01/07 12:18:57;;;;;;;24.77;10.90;;;3.20;99.90;;;;;;5132592;28;20074;-73
2021/01/07 12:21:25;;;;;;;26.93;11.40;;;3.30;99.90;;;;;;5127529;28;20051;-69
2021/01/07 12:23:53;;;;;;;25.93;12.20;;;3.20;99.90;;;;;;5104671;28;20136;-70
2021/01/07 12:26:21;;;;;;;30.57;12.23;;;3.30;99.90;;;;;;5107636;28;20048;-68
2021/01/07 12:28:52;;;;;;;29.77;12.53;;;3.20;99.90;;;;;;5112523;28;20039;-69
2021/01/07 12:31:21;;;;;;;29.13;12.10;;;3.10;99.90;;;;;;5108804;28;20132;-69
2021/01/07 12:34:02;;;;;;;32.10;13.97;;;3.10;99.90;;;;;;5109647;28;20051;-69
2021/01/07 12:36:41;;;;;;;31.63;13.40;;;3.10;99.90;;;;;;5106261;28;20530;-71
2021/01/07 12:39:16;;;;;;;33.27;13.93;;;3.00;99.90;;;;;;5110521;28;20047;-69
2021/01/07 12:41:49;;;;;;;35.17;13.97;;;3.00;99.90;;;;;;5112281;28;20043;-69
2021/01/07 12:44:19;;;;;;;32.27;13.67;;;3.00;99.90;;;;;;5112871;28;20052;-69
2021/01/07 12:46:48;;;;;;;31.37;13.63;;;3.10;99.90;;;;;;5113726;28;20051;-69
2021/01/07 12:49:18;;;;;;;38.70;16.03;;;3.00;99.90;;;;;;5113003;28;20043;-69
2021/01/07 12:51:47;;;;;;;32.57;13.90;;;2.90;99.90;;;;;;5107630;28;20652;-72
2021/01/07 12:54:14;;;;;;;38.27;16.67;;;3.00;99.90;;;;;;5109202;28;20047;-70